Time;durP1;ratioP1;P1;durP2;ratioP2;P2;SDS_P1;SDS_P2;PMS_P1;PMS_P2;Temp;Humidity;BMP_temperature;BMP_pressure;BME280_temperature;BME280_humidity;BME280_pressure;Samples;Min_cycle;Max_cycle;Signal;HPM_P1;HPM_P2
2022/08/02 00:02:08;;;;;;;1.02;0.90;;;;;;;18.87;75.42;100157.59;10458482;28;20045;-69
2022/08/02 00:07:10;;;;;;;1.60;0.90;;;;;;;19.10;74.09;100152.59;10458305;28;20124;-68
2022/08/02 00:12:12;;;;;;;0.63;0.63;;;;;;;18.68;75.98;100154.34;10458278;28;20120;-68
2022/08/02 00:17:14;;;;;;;0.80;0.68;;;;;;;18.53;76.79;100148.19;10458966;28;20106;-69
2022/08/02 00:22:16;;;;;;;0.80;0.80;;;;;;;18.51;77.24;100147.44;10457350;28;20040;-68
2022/08/02 00:27:17;;;;;;;0.80;0.80;;;;;;;18.47;77.20;100161.03;10458376;28;20053;-69
2022/08/02 00:32:22;;;;;;;0.95;0.65;;;;;;;18.33;77.63;100161.91;10440385;28;20041;-68
2022/08/02 00:37:24;;;;;;;1.65;0.80;;;;;;;18.52;76.88;100165.13;10458169;28;20049;-69
2022/08/02 00:42:25;;;;;;;0.85;0.70;;;;;;;18.52;76.37;100158.94;10440288;28;20044;-68
2022/08/02 00:47:27;;;;;;;1.13;0.88;;;;;;;18.22;77.71;100153.72;10457864;28;20049;-69
2022/08/02 00:52:29;;;;;;;1.13;0.77;;;;;;;17.90;79.09;100153.88;10459073;22;20038;-66
2022/08/02 00:57:30;;;;;;;0.90;0.90;;;;;;;17.63;80.98;100149.22;10417006;28;20050;-66
2022/08/02 01:02:32;;;;;;;0.80;0.80;;;;;;;17.52;81.50;100158.75;10414975;28;20173;-67
2022/08/02 01:07:34;;;;;;;3.88;1.10;;;;;;;17.45;82.72;100150.31;10415061;28;20049;-66
2022/08/02 01:12:36;;;;;;;0.85;0.85;;;;;;;17.48;82.96;100141.28;10414698;28;20057;-67
2022/08/02 01:18:01;;;;;;;0.85;0.85;;;;;;;17.52;82.74;100143.66;10416148;28;20057;-67
2022/08/02 01:23:15;;;;;;;0.70;0.70;;;;;;;17.56;81.75;100152.31;10415245;28;20052;-67
2022/08/02 01:28:33;;;;;;;1.33;0.80;;;;;;;17.42;82.99;100158.44;10415650;28;20037;-67
2022/08/02 01:33:43;;;;;;;2.08;1.00;;;;;;;17.63;81.94;100159.84;10403589;28;20247;-67
2022/08/02 01:38:48;;;;;;;1.08;1.08;;;;;;;17.69;80.99;100155.13;10422796;28;20089;-66
2022/08/02 01:43:54;;;;;;;2.60;0.73;;;;;;;17.30;82.90;100167.13;10422382;28;20060;-67
2022/08/02 01:48:57;;;;;;;2.47;1.00;;;;;;;17.27;82.95;100169.97;10422452;28;20410;-67
2022/08/02 01:54:00;;;;;;;1.23;1.13;;;;;;;17.04;84.96;100169.44;10404378;28;20041;-66
2022/08/02 01:59:07;;;;;;;1.15;1.00;;;;;;;17.38;83.52;100171.06;10421866;28;20056;-67
2022/08/02 02:04:09;;;;;;;2.03;1.10;;;;;;;17.37;83.00;100160.53;10403874;28;20042;-66
2022/08/02 02:09:15;;;;;;;1.40;1.20;;;;;;;17.42;82.75;100177.06;10421388;28;20038;-67
2022/08/02 02:14:18;;;;;;;0.97;0.90;;;;;;;17.27;83.97;100169.97;10421217;28;20044;-67
2022/08/02 02:19:22;;;;;;;1.25;1.10;;;;;;;17.18;84.88;100174.00;10402932;28;20037;-66
2022/08/02 02:24:24;;;;;;;1.23;1.13;;;;;;;17.12;85.09;100175.19;10420600;28;20411;-67
2022/08/02 02:29:31;;;;;;;1.45;1.20;;;;;;;16.96;86.66;100173.50;10420140;28;20069;-67
2022/08/02 02:34:36;;;;;;;1.33;1.20;;;;;;;16.99;87.24;100178.63;10420809;28;20045;-67
2022/08/02 02:39:40;;;;;;;1.30;1.20;;;;;;;17.00;86.60;100183.88;10420524;28;20475;-66
2022/08/02 02:44:44;;;;;;;1.52;1.27;;;;;;;16.94;86.15;100186.00;10420796;28;20041;-67
2022/08/02 02:49:47;;;;;;;1.55;1.42;;;;;;;16.86;86.37;100192.56;10402950;28;20053;-67
2022/08/02 02:54:50;;;;;;;1.52;1.40;;;;;;;16.82;86.27;100199.03;10419344;28;20052;-67
2022/08/02 02:59:53;;;;;;;1.60;1.50;;;;;;;16.77;85.86;100198.41;10419568;28;20038;-67
2022/08/02 03:04:56;;;;;;;2.00;1.73;;;;;;;16.71;85.84;100201.38;10419327;28;20471;-67
2022/08/02 03:09:59;;;;;;;2.17;1.60;;;;;;;16.73;85.81;100199.50;10401281;28;20049;-66
2022/08/02 03:15:06;;;;;;;3.28;1.75;;;;;;;17.15;83.61;100206.91;10418989;28;20046;-67
2022/08/02 03:20:13;;;;;;;1.50;1.40;;;;;;;16.90;84.02;100206.53;10419139;28;20048;-67
2022/08/02 03:25:16;;;;;;;2.08;1.80;;;;;;;16.76;85.30;100211.75;10418939;28;20107;-67
2022/08/02 03:30:18;;;;;;;1.65;1.55;;;;;;;16.80;85.42;100206.19;10418278;28;20033;-66
2022/08/02 03:35:20;;;;;;;2.05;1.65;;;;;;;16.67;86.93;100194.50;10417865;28;20108;-67
2022/08/02 03:40:26;;;;;;;1.67;1.58;;;;;;;16.73;86.19;100194.19;10400084;28;20568;-67
2022/08/02 03:45:29;;;;;;;1.60;1.50;;;;;;;16.76;85.77;100193.19;10399701;28;20060;-67
2022/08/02 03:50:32;;;;;;;1.92;1.60;;;;;;;16.71;85.80;100201.38;10417164;28;20040;-67
2022/08/02 03:55:35;;;;;;;1.80;1.70;;;;;;;16.57;86.96;100203.91;10416744;28;20041;-67
2022/08/02 04:00:36;;;;;;;2.20;2.10;;;;;;;16.48;88.29;100213.22;10416741;28;20042;-67
2022/08/02 04:05:39;;;;;;;2.28;1.52;;;;;;;16.46;88.40;100223.03;10398952;28;20129;-67
2022/08/02 04:16:38;;;;;;;3.22;1.90;;;;;;;16.64;87.32;100226.50;10416312;28;20041;-65
2022/08/02 04:21:42;;;;;;;2.10;1.90;;;;;;;16.73;87.22;100235.81;10402185;28;20049;-65
2022/08/02 04:26:58;;;;;;;2.17;1.98;;;;;;;16.76;86.89;100244.47;10416074;28;20076;-66
2022/08/02 04:32:20;;;;;;;2.80;2.60;;;;;;;16.78;86.34;100247.91;10417033;28;20037;-66
2022/08/02 04:37:22;;;;;;;2.00;1.80;;;;;;;16.94;86.03;100255.03;10398422;28;20050;-66
2022/08/02 04:42:25;;;;;;;3.42;2.50;;;;;;;17.06;85.63;100265.00;10416102;28;20037;-66
2022/08/02 04:47:27;;;;;;;3.58;2.08;;;;;;;17.18;84.07;100264.31;10416210;28;20045;-66
2022/08/02 04:52:49;;;;;;;2.75;2.10;;;;;;;17.34;83.61;100280.25;10415710;28;20048;-66
2022/08/02 04:57:53;;;;;;;3.10;2.80;;;;;;;17.25;83.74;100288.75;10416084;28;20053;-66
2022/08/02 05:02:56;;;;;;;2.75;2.55;;;;;;;17.35;83.51;100285.50;10415378;28;20413;-66
2022/08/02 05:07:58;;;;;;;3.30;2.83;;;;;;;17.77;81.01;100270.75;10427000;28;20125;-66
2022/08/02 05:13:02;;;;;;;2.58;2.38;;;;;;;18.11;78.60;100276.75;10428492;28;20099;-66
2022/08/02 05:18:05;;;;;;;2.78;2.58;;;;;;;18.06;78.97;100274.38;10408967;28;20462;-66
2022/08/02 05:23:07;;;;;;;2.55;2.35;;;;;;;18.38;76.87;100275.09;10415150;28;20067;-66
2022/08/02 05:28:09;;;;;;;2.70;2.50;;;;;;;18.43;77.89;100273.97;10428957;28;20046;-66
2022/08/02 05:33:12;;;;;;;2.25;2.13;;;;;;;18.73;75.01;100274.78;10431180;28;20055;-66
2022/08/02 05:38:14;;;;;;;3.40;2.53;;;;;;;18.82;74.21;100281.38;10428744;28;20049;-66
2022/08/02 05:43:20;;;;;;;4.63;2.28;;;;;;;18.78;75.25;100277.19;10427589;28;20049;-66
2022/08/02 05:48:22;;;;;;;2.70;2.20;;;;;;;18.54;76.31;100275.00;10429444;28;20073;-66
2022/08/02 05:54:22;;;;;;;3.55;2.55;;;;;;;18.71;76.08;100276.69;10426674;28;20049;-67
2022/08/02 05:59:30;;;;;;;3.85;2.08;;;;;;;19.04;73.81;100280.88;10300868;28;20046;-67
2022/08/02 06:04:44;;;;;;;2.08;1.92;;;;;;;19.34;72.75;100280.72;10298993;28;20054;-66
2022/08/02 06:09:49;;;;;;;2.60;2.40;;;;;;;19.25;73.08;100289.31;10299548;28;20081;-66
2022/08/02 06:14:53;;;;;;;3.75;2.25;;;;;;;19.32;72.92;100290.63;10296865;28;20055;-67
2022/08/02 06:19:59;;;;;;;7.93;2.92;;;;;;;19.62;71.63;100286.03;10295020;28;20066;-67
2022/08/02 06:25:02;;;;;;;2.85;2.17;;;;;;;20.15;70.16;100300.28;10294822;28;20113;-67
2022/08/02 06:30:05;;;;;;;2.63;1.73;;;;;;;21.50;64.01;100301.56;10392705;28;20049;-67
2022/08/02 06:35:07;;;;;;;3.75;1.40;;;;;;;21.83;61.33;100300.91;10403385;28;20049;-67
2022/08/02 06:40:16;;;;;;;2.75;2.05;;;;;;;21.75;61.46;100291.75;10401868;28;20099;-67
2022/08/02 06:45:17;;;;;;;3.65;1.88;;;;;;;21.61;62.66;100288.25;10419668;28;20052;-68
2022/08/02 06:50:20;;;;;;;2.20;1.70;;;;;;;21.39;63.32;100288.13;10421045;28;20386;-66
2022/08/02 06:55:21;;;;;;;3.80;2.00;;;;;;;21.51;62.69;100289.88;10411147;23;20375;-68
2022/08/02 07:00:23;;;;;;;4.05;1.60;;;;;;;21.88;61.49;100282.69;10380989;28;20125;-69
2022/08/02 07:05:25;;;;;;;5.95;2.42;;;;;;;21.99;59.57;100283.69;10404861;28;20048;-68
2022/08/02 07:10:27;;;;;;;3.92;1.70;;;;;;;22.71;57.65;100279.06;10421537;28;20045;-68
2022/08/02 07:15:29;;;;;;;4.38;1.60;;;;;;;23.23;55.71;100279.41;10420723;28;20151;-68
2022/08/02 07:20:31;;;;;;;5.63;1.95;;;;;;;23.09;55.44;100284.06;10421211;28;20437;-69
2022/08/02 07:25:32;;;;;;;5.97;1.70;;;;;;;23.47;54.77;100273.91;10403355;28;20056;-69
2022/08/02 07:30:54;;;;;;;6.93;1.58;;;;;;;23.95;54.33;100277.09;10420918;28;20037;-69
2022/08/02 07:35:57;;;;;;;4.47;1.63;;;;;;;23.67;53.55;100270.47;10403210;28;20053;-69
2022/08/02 07:41:02;;;;;;;2.85;1.50;;;;;;;23.08;55.13;100266.28;10402095;28;20136;-68
2022/08/02 07:46:04;;;;;;;7.70;1.85;;;;;;;23.43;54.32;100257.22;10419661;28;20047;-68
2022/08/02 07:51:06;;;;;;;3.53;1.30;;;;;;;23.85;53.05;100268.94;10418724;28;20053;-68
2022/08/02 07:56:07;;;;;;;7.30;1.40;;;;;;;24.29;51.59;100260.78;10418611;28;20521;-69
2022/08/02 08:01:09;;;;;;;7.40;1.55;;;;;;;24.61;51.36;100253.53;10419486;28;20406;-70
2022/08/02 08:06:11;;;;;;;2.95;1.10;;;;;;;24.77;50.63;100244.13;10419123;28;20052;-69
2022/08/02 08:11:13;;;;;;;2.30;1.27;;;;;;;25.36;49.80;100248.72;10418443;28;20072;-69
2022/08/02 08:16:14;;;;;;;3.40;1.23;;;;;;;25.40;49.47;100240.22;10418027;28;20046;-69
2022/08/02 08:21:16;;;;;;;3.80;2.15;;;;;;;25.38;49.06;100236.84;10400040;28;20058;-69
2022/08/02 08:26:17;;;;;;;5.05;1.45;;;;;;;25.61;48.34;100241.97;10417859;28;20053;-68
2022/08/02 08:31:19;;;;;;;6.38;1.45;;;;;;;26.18;47.21;100232.22;10417776;28;20050;-67
2022/08/02 08:36:21;;;;;;;8.23;1.25;;;;;;;26.08;47.53;100240.31;10417976;28;20045;-69
2022/08/02 08:41:23;;;;;;;7.78;1.50;;;;;;;26.65;45.92;100232.25;10400351;28;20061;-69
2022/08/02 08:46:27;;;;;;;2.45;1.08;;;;;;;26.80;46.13;100235.34;10417638;28;20045;-69
2022/08/02 08:51:34;;;;;;;2.23;1.57;;;;;;;26.71;45.33;100230.81;10420559;28;20145;-68
2022/08/02 08:56:36;;;;;;;2.15;1.10;;;;;;;26.98;46.03;100233.53;10417150;28;20072;-68
2022/08/02 09:01:38;;;;;;;6.05;1.00;;;;;;;27.25;44.98;100227.31;10400034;28;20038;-68
2022/08/02 09:06:51;;;;;;;4.30;1.42;;;;;;;26.39;45.55;100232.88;10417563;28;20049;-67
2022/08/02 09:11:53;;;;;;;2.83;1.35;;;;;;;26.80;45.72;100225.38;10418051;28;20041;-68
2022/08/02 09:17:06;;;;;;;3.05;1.40;;;;;;;27.06;45.11;100222.84;10399597;28;20403;-68
2022/08/02 09:22:10;;;;;;;2.85;0.90;;;;;;;27.31;44.12;100218.59;10417758;28;20391;-67
2022/08/02 09:27:17;;;;;;;6.13;1.80;;;;;;;27.71;43.66;100222.72;10418681;28;20117;-67
2022/08/02 09:32:19;;;;;;;3.97;1.30;;;;;;;27.92;42.93;100222.44;10417749;28;20033;-67
2022/08/02 09:37:27;;;;;;;3.97;1.25;;;;;;;28.46;41.45;100220.50;10417204;28;20046;-68
2022/08/02 09:42:28;;;;;;;2.83;1.27;;;;;;;27.52;42.83;100210.22;10398253;28;20117;-68
2022/08/02 09:47:32;;;;;;;2.17;1.20;;;;;;;28.13;42.77;100206.72;10416606;28;20132;-68
2022/08/02 09:52:38;;;;;;;2.10;1.00;;;;;;;28.66;40.94;100204.91;10418709;28;20041;-68
2022/08/02 09:57:44;;;;;;;3.38;1.20;;;;;;;29.16;39.89;100190.56;10424148;28;20049;-69
2022/08/02 10:03:24;;;;;;;2.33;1.20;;;;;;;29.11;40.30;100188.38;10424272;28;20034;-68
2022/08/02 10:08:36;;;;;;;1.70;1.00;;;;;;;28.37;40.83;100189.84;10258586;29;20079;-67
2022/08/02 10:13:38;;;;;;;1.70;1.00;;;;;;;27.33;43.24;100189.63;10258060;28;20614;-69
2022/08/02 10:18:39;;;;;;;1.70;0.98;;;;;;;27.85;42.09;100180.88;10257984;29;20059;-68
2022/08/02 10:23:43;;;;;;;5.63;0.90;;;;;;;28.90;40.68;100179.78;10257996;28;20098;-68
2022/08/02 10:28:48;;;;;;;1.27;0.90;;;;;;;29.88;38.95;100171.91;10241914;29;20129;-69
2022/08/02 10:33:52;;;;;;;8.65;0.95;;;;;;;30.42;36.50;100174.91;10257623;28;20099;-69
2022/08/02 10:38:57;;;;;;;1.67;0.80;;;;;;;29.41;38.82;100164.41;10256428;29;20079;-68
2022/08/02 10:43:59;;;;;;;1.08;0.90;;;;;;;30.07;38.06;100155.28;10373317;28;20073;-69
2022/08/02 10:49:01;;;;;;;2.45;0.90;;;;;;;30.60;37.20;100142.97;10421795;28;20410;-70
2022/08/02 10:54:30;;;;;;;1.50;1.10;;;;;;;31.12;36.49;100142.41;10404398;28;20498;-69
2022/08/02 10:59:35;;;;;;;2.65;0.80;;;;;;;31.37;35.93;100139.53;10403868;28;20053;-70
2022/08/02 11:04:36;;;;;;;;;;;;;;;31.35;36.07;100131.59;10422330;28;20116;-70
2022/08/02 11:09:40;;;;;;;2.85;0.75;;;;;;;30.13;37.24;100135.63;10420949;28;19928;-69
2022/08/02 11:14:44;;;;;;;2.42;0.80;;;;;;;30.03;37.79;100134.13;10420107;28;20053;-69
2022/08/02 11:20:11;;;;;;;1.45;0.90;;;;;;;29.49;38.01;100147.34;10420912;28;20051;-71
2022/08/02 11:25:21;;;;;;;6.18;1.02;;;;;;;28.93;38.58;100144.31;10402577;28;20071;-70
2022/08/02 11:30:24;;;;;;;1.92;0.80;;;;;;;28.37;39.88;100157.41;10420058;28;20046;-70
2022/08/02 11:35:36;;;;;;;1.10;0.80;;;;;;;27.86;40.68;100150.13;10419859;28;20050;-70
2022/08/02 11:40:38;;;;;;;3.55;0.80;;;;;;;28.54;39.47;100136.72;10420043;28;20045;-71
2022/08/02 11:45:40;;;;;;;0.95;0.70;;;;;;;29.51;38.39;100129.03;10418669;28;20053;-70
2022/08/02 11:50:41;;;;;;;3.03;0.70;;;;;;;30.16;37.44;100129.03;10419074;28;20048;-70
2022/08/02 11:55:43;;;;;;;1.55;0.90;;;;;;;30.75;36.26;100120.56;10419770;28;20052;-74
2022/08/02 12:00:45;;;;;;;1.98;0.68;;;;;;;30.24;35.70;100118.19;10418846;28;20045;-70
2022/08/02 12:05:48;;;;;;;1.13;0.60;;;;;;;29.73;36.80;100111.28;10418510;28;20048;-70
2022/08/02 12:11:06;;;;;;;1.10;0.70;;;;;;;29.63;37.03;100109.59;10432682;28;20053;-70
2022/08/02 12:21:33;;;;;;;0.50;0.50;;;;;;;30.54;35.26;100094.81;10418410;28;20513;-70
2022/08/02 12:26:53;;;;;;;0.60;0.60;;;;;;;30.84;34.93;100076.06;10418171;28;20048;-70
2022/08/02 12:31:54;;;;;;;2.60;0.60;;;;;;;29.56;35.46;100069.81;10417725;28;20038;-70
2022/08/02 12:37:07;;;;;;;0.82;0.70;;;;;;;30.48;35.16;100065.72;10418126;28;20045;-69
2022/08/02 12:42:12;;;;;;;1.15;0.70;;;;;;;29.81;36.30;100054.38;10418645;28;20037;-70
2022/08/02 12:47:14;;;;;;;0.70;0.47;;;;;;;29.65;36.33;100056.09;10417927;28;20045;-69
2022/08/02 12:52:23;;;;;;;0.57;0.52;;;;;;;30.88;33.78;100064.66;10399388;28;20406;-70
2022/08/02 12:57:25;;;;;;;2.38;0.60;;;;;;;30.89;33.74;100066.34;10408464;23;20056;-68
2022/08/02 13:02:27;;;;;;;3.67;0.80;;;;;;;30.04;35.01;100058.03;10342105;28;20505;-68
2022/08/02 13:07:29;;;;;;;1.40;0.60;;;;;;;29.80;35.45;100053.53;10338279;28;20438;-68
2022/08/02 13:12:33;;;;;;;3.30;0.75;;;;;;;30.04;34.52;100051.78;10338554;28;20065;-67
2022/08/02 13:17:35;;;;;;;1.17;0.63;;;;;;;29.25;34.76;100050.66;10334087;28;20046;-68
2022/08/02 13:22:37;;;;;;;1.33;0.68;;;;;;;30.16;34.22;100047.72;10330932;28;20070;-67
2022/08/02 13:27:53;;;;;;;1.65;0.60;;;;;;;30.19;33.82;100047.34;10302517;28;20042;-68
2022/08/02 13:32:55;;;;;;;0.65;0.52;;;;;;;30.25;34.45;100041.25;10340937;28;20386;-68
2022/08/02 13:38:03;;;;;;;3.15;0.70;;;;;;;30.43;33.45;100038.28;10307192;28;20097;-69
2022/08/02 13:43:04;;;;;;;1.83;0.90;;;;;;;30.52;33.57;100041.78;10339640;28;20035;-68
2022/08/02 13:48:06;;;;;;;3.10;0.98;;;;;;;30.27;33.68;100041.91;10340071;28;20054;-68
2022/08/02 13:53:20;;;;;;;0.77;0.63;;;;;;;30.63;32.90;100036.78;10334195;28;20066;-68
2022/08/02 13:58:22;;;;;;;0.50;0.50;;;;;;;30.62;32.99;100024.25;10329371;28;20495;-68
2022/08/02 14:03:23;;;;;;;0.50;0.50;;;;;;;30.53;33.38;100013.63;10339197;28;20049;-68
2022/08/02 14:08:45;;;;;;;1.58;0.52;;;;;;;30.62;33.06;100010.69;10339164;28;20050;-68
2022/08/02 14:13:47;;;;;;;0.80;0.50;;;;;;;30.64;32.80;100011.38;10338885;28;20053;-68
2022/08/02 14:18:48;;;;;;;0.88;0.70;;;;;;;30.65;32.54;100009.50;10338017;28;20046;-68
2022/08/02 14:23:51;;;;;;;3.28;0.65;;;;;;;30.49;32.83;100005.00;10320498;28;20447;-69
2022/08/02 14:28:53;;;;;;;0.60;0.60;;;;;;;30.54;32.83;100007.19;10337931;28;20077;-67
2022/08/02 14:33:54;;;;;;;1.67;0.50;;;;;;;30.49;32.16;100005.00;10337909;28;20126;-68
2022/08/02 14:38:56;;;;;;;2.08;0.70;;;;;;;30.36;32.71;99992.03;10336187;28;20039;-69
2022/08/02 14:44:04;;;;;;;1.55;0.50;;;;;;;29.94;33.76;99994.22;10335797;28;20038;-67
2022/08/02 14:49:08;;;;;;;0.82;0.60;;;;;;;29.94;33.74;99978.81;10335492;28;20121;-67
2022/08/02 14:54:11;;;;;;;1.15;0.60;;;;;;;29.81;34.31;99982.06;10335077;28;20039;-66
2022/08/02 14:59:15;;;;;;;1.55;0.70;;;;;;;30.12;33.64;99994.84;10337513;28;20080;-67
2022/08/02 15:04:16;;;;;;;2.25;0.80;;;;;;;30.47;33.18;99987.25;10336649;28;20043;-68
2022/08/02 15:09:19;;;;;;;1.55;0.70;;;;;;;30.45;32.95;99998.25;10336082;28;20043;-68
2022/08/02 15:14:21;;;;;;;0.50;0.50;;;;;;;30.17;34.15;99981.63;10336695;28;20392;-69
2022/08/02 15:19:29;;;;;;;0.82;0.68;;;;;;;29.99;33.26;99972.88;10336404;28;20088;-67
2022/08/02 15:24:50;;;;;;;1.38;0.70;;;;;;;29.72;33.88;99963.31;10335977;28;20038;-68
2022/08/02 15:29:58;;;;;;;2.22;0.70;;;;;;;29.68;34.57;99967.38;10335726;28;20057;-66
2022/08/02 15:35:00;;;;;;;2.25;0.70;;;;;;;29.53;34.30;99964.50;10335840;28;20069;-67
2022/08/02 15:40:03;;;;;;;1.63;0.75;;;;;;;29.22;34.69;99964.38;10335462;28;20042;-67
2022/08/02 15:45:05;;;;;;;2.92;0.60;;;;;;;29.10;35.17;99962.03;10335076;28;20056;-67
2022/08/02 15:50:07;;;;;;;2.25;0.70;;;;;;;29.40;35.23;99970.47;10332653;28;20038;-68
2022/08/02 15:55:11;;;;;;;1.13;0.60;;;;;;;29.41;34.63;99961.31;10334643;28;20042;-66
2022/08/02 16:00:15;;;;;;;0.85;0.50;;;;;;;29.92;33.64;99973.53;10335044;28;20050;-67
2022/08/02 16:05:20;;;;;;;;;;;;;;;30.24;33.83;99971.78;10335733;28;20451;-67
2022/08/02 16:10:22;;;;;;;2.35;0.80;;;;;;;30.02;33.76;99967.94;10334332;28;19965;-67
2022/08/02 16:15:23;;;;;;;0.77;0.68;;;;;;;29.72;34.14;99972.28;10334783;28;20046;-67
2022/08/02 16:20:25;;;;;;;1.33;0.70;;;;;;;29.83;33.93;99968.34;10331802;28;20061;-67
2022/08/02 16:25:27;;;;;;;0.80;0.50;;;;;;;29.51;34.49;99964.69;10333735;28;20042;-67
2022/08/02 16:30:28;;;;;;;0.70;0.60;;;;;;;29.29;34.82;99962.69;10316406;28;20046;-67
2022/08/02 16:35:30;;;;;;;0.80;0.77;;;;;;;29.31;35.24;99955.25;10333910;28;20046;-67
2022/08/02 16:40:33;;;;;;;2.65;0.75;;;;;;;29.05;35.33;99956.28;10333443;28;20458;-67
2022/08/02 16:45:35;;;;;;;2.17;0.80;;;;;;;29.12;35.42;99967.25;10333856;28;20046;-66
2022/08/02 16:50:37;;;;;;;1.45;0.60;;;;;;;29.12;34.81;99967.25;10333775;28;20455;-66
2022/08/02 16:55:38;;;;;;;2.08;0.68;;;;;;;28.90;35.56;99960.63;10333227;28;20113;-66
2022/08/02 17:00:52;;;;;;;0.98;0.60;;;;;;;29.15;34.93;99965.06;10335490;28;20093;-66
2022/08/02 17:05:54;;;;;;;0.80;0.55;;;;;;;28.97;34.99;99950.88;10341534;28;20121;-67
2022/08/02 17:10:57;;;;;;;0.95;0.80;;;;;;;28.71;36.24;99958.28;10341129;28;20050;-67
2022/08/02 17:16:05;;;;;;;0.90;0.70;;;;;;;28.92;35.77;99966.75;10340998;28;20050;-67
2022/08/02 17:21:26;;;;;;;0.70;0.70;;;;;;;28.78;35.61;99968.25;10341973;28;20053;-67
2022/08/02 17:26:28;;;;;;;0.80;0.73;;;;;;;28.72;35.97;99976.19;10341521;28;20050;-66
2022/08/02 17:31:30;;;;;;;1.13;0.60;;;;;;;28.36;36.32;99966.47;10340772;28;20065;-66
2022/08/02 17:36:44;;;;;;;1.30;1.00;;;;;;;28.41;36.44;99979.50;10340532;28;20050;-66
2022/08/02 17:41:50;;;;;;;1.55;0.82;;;;;;;28.18;36.67;99968.44;10340496;28;20097;-66
2022/08/02 17:46:52;;;;;;;1.10;1.00;;;;;;;28.12;37.31;99979.91;10339791;28;20100;-66
2022/08/02 17:51:53;;;;;;;1.77;1.00;;;;;;;28.08;37.44;99979.38;10339527;28;20053;-67
2022/08/02 17:57:17;;;;;;;1.20;1.00;;;;;;;27.97;37.77;99976.94;10351877;28;20042;-67
2022/08/02 18:02:19;;;;;;;1.13;0.70;;;;;;;27.90;37.60;99975.91;10337966;28;20053;-67
2022/08/02 18:07:21;;;;;;;1.48;0.70;;;;;;;27.80;38.07;99975.19;10339756;28;20061;-67
2022/08/02 18:12:25;;;;;;;1.42;0.88;;;;;;;27.65;38.39;99973.03;10338615;28;20093;-67
2022/08/02 18:17:28;;;;;;;0.88;0.82;;;;;;;27.47;39.38;99976.81;10338742;28;20050;-67
2022/08/02 18:22:30;;;;;;;1.30;1.10;;;;;;;27.30;40.04;99984.81;10338706;28;20053;-67
2022/08/02 18:27:32;;;;;;;1.60;0.88;;;;;;;27.25;40.09;99983.59;10338586;28;20042;-67
2022/08/02 18:32:34;;;;;;;1.98;1.00;;;;;;;27.06;40.52;99990.84;10338122;28;20154;-67
2022/08/02 18:37:55;;;;;;;2.47;1.30;;;;;;;26.92;40.97;99991.38;10338366;28;20042;-67
2022/08/02 18:43:04;;;;;;;1.95;1.40;;;;;;;26.69;41.63;99996.38;10338680;28;20042;-68
2022/08/02 18:48:08;;;;;;;2.00;1.58;;;;;;;26.65;42.29;99992.28;10338243;28;20050;-67
2022/08/02 18:53:09;;;;;;;1.40;1.30;;;;;;;26.42;42.89;99995.38;10338208;28;20399;-67
2022/08/02 18:58:15;;;;;;;1.50;0.90;;;;;;;26.17;43.50;99999.66;10424938;23;20045;-69
2022/08/02 19:03:21;;;;;;;2.05;1.02;;;;;;;25.98;44.40;99993.50;10470073;28;20032;-69
2022/08/02 19:08:22;;;;;;;1.33;0.82;;;;;;;25.80;44.99;100005.06;10504656;28;20072;-68
2022/08/02 19:13:26;;;;;;;1.23;1.00;;;;;;;25.68;45.04;100006.22;10504535;28;20524;-69
2022/08/02 19:18:28;;;;;;;2.65;1.00;;;;;;;25.28;46.02;100010.00;10504539;28;20049;-70
2022/08/02 19:23:31;;;;;;;2.03;1.10;;;;;;;25.26;46.15;100014.66;10505559;28;20044;-69
2022/08/02 19:28:33;;;;;;;1.60;1.10;;;;;;;25.05;46.44;100012.06;10504226;28;20044;-69
2022/08/02 19:33:35;;;;;;;3.28;1.40;;;;;;;25.02;46.47;100014.22;10504219;28;20075;-69
2022/08/02 19:38:58;;;;;;;2.90;1.30;;;;;;;24.74;47.43;100024.78;10504478;28;20044;-70
2022/08/02 19:44:01;;;;;;;3.00;1.10;;;;;;;24.61;47.64;100025.09;10503950;28;20469;-69
2022/08/02 19:49:23;;;;;;;3.05;1.50;;;;;;;24.46;48.01;100028.28;10505083;28;20040;-69
2022/08/02 19:54:41;;;;;;;3.20;1.80;;;;;;;24.28;48.27;100031.59;10504813;28;20069;-69
2022/08/02 19:59:57;;;;;;;2.97;1.52;;;;;;;24.28;48.62;100036.97;10505835;28;20041;-69
2022/08/02 20:05:00;;;;;;;1.73;1.63;;;;;;;24.05;49.07;100044.38;10488158;28;20044;-69
2022/08/02 20:10:16;;;;;;;2.33;1.48;;;;;;;24.09;48.97;100050.34;10504196;28;20044;-69
2022/08/02 20:15:25;;;;;;;2.22;1.30;;;;;;;23.92;48.86;100052.66;10484777;28;20509;-70
2022/08/02 20:20:47;;;;;;;2.85;1.42;;;;;;;24.03;48.26;100049.03;10500009;28;20063;-73
2022/08/02 20:25:51;;;;;;;3.03;1.27;;;;;;;23.87;48.75;100051.38;10502142;28;20115;-72
2022/08/02 20:30:55;;;;;;;2.10;1.30;;;;;;;23.61;49.24;100056.28;10501805;28;20036;-72
2022/08/02 20:36:01;;;;;;;2.28;1.20;;;;;;;23.49;49.93;100055.47;10505022;28;20393;-73
2022/08/02 20:41:07;;;;;;;1.83;1.20;;;;;;;23.30;50.32;100060.72;10467153;28;20052;-73
2022/08/02 20:46:12;;;;;;;1.42;1.33;;;;;;;23.24;50.44;100055.84;10428080;28;20049;-72
2022/08/02 20:51:18;;;;;;;2.83;1.60;;;;;;;23.36;49.72;100068.22;10460902;28;20041;-73
2022/08/02 20:56:34;;;;;;;6.40;1.27;;;;;;;23.40;49.56;100064.31;10487725;28;20046;-73
2022/08/02 21:01:36;;;;;;;1.95;1.30;;;;;;;23.19;50.28;100058.06;10499848;28;20036;-72
2022/08/02 21:06:39;;;;;;;1.77;1.20;;;;;;;22.96;51.06;100060.84;10481145;28;20052;-72
2022/08/02 21:11:44;;;;;;;2.03;1.63;;;;;;;23.00;51.37;100062.28;10499450;28;20497;-72
2022/08/02 21:16:51;;;;;;;1.50;1.40;;;;;;;23.03;50.61;100054.00;10499585;28;20044;-73
2022/08/02 21:21:53;;;;;;;3.38;1.23;;;;;;;23.05;50.50;100051.19;10481104;28;20045;-72
2022/08/02 21:26:54;;;;;;;2.67;1.10;;;;;;;23.14;50.37;100053.94;10499055;28;20557;-72
2022/08/02 21:31:57;;;;;;;3.33;1.30;;;;;;;22.87;50.92;100046.34;10498474;28;20047;-72
2022/08/02 21:36:58;;;;;;;2.75;1.38;;;;;;;22.77;51.37;100044.56;10498501;28;20052;-72
2022/08/02 21:42:10;;;;;;;1.60;1.30;;;;;;;22.80;50.62;100061.25;10498235;28;20037;-72
2022/08/02 21:47:25;;;;;;;2.30;1.00;;;;;;;22.68;51.78;100046.16;10499907;28;20133;-73
2022/08/02 21:52:28;;;;;;;1.98;1.20;;;;;;;22.50;52.26;100045.00;10507812;28;20466;-72
2022/08/02 21:57:30;;;;;;;2.08;1.40;;;;;;;22.49;52.86;100048.63;10506443;28;20051;-72
2022/08/02 22:02:35;;;;;;;3.92;1.83;;;;;;;22.21;53.93;100050.84;10506735;28;20047;-72
2022/08/02 22:07:37;;;;;;;2.60;1.80;;;;;;;21.92;54.94;100054.00;10507010;28;20397;-72
2022/08/02 22:12:39;;;;;;;2.63;1.65;;;;;;;22.17;54.82;100044.03;10504991;28;20037;-72
2022/08/02 22:17:40;;;;;;;2.47;1.73;;;;;;;22.08;53.99;100042.06;10505188;28;20047;-72
2022/08/02 22:22:54;;;;;;;1.50;1.40;;;;;;;22.11;54.09;100045.34;10479553;28;20037;-72
2022/08/02 22:27:55;;;;;;;2.03;1.40;;;;;;;21.78;54.76;100050.69;10463491;28;20116;-73
2022/08/02 22:38:38;;;;;;;2.80;1.70;;;;;;;21.27;56.40;100073.28;10462688;28;20055;-72
2022/08/02 22:43:44;;;;;;;2.92;1.58;;;;;;;21.56;55.28;100060.41;10463045;28;20401;-72
2022/08/02 22:48:46;;;;;;;1.85;1.35;;;;;;;21.38;56.31;100069.81;10463378;28;20457;-72
2022/08/02 22:53:49;;;;;;;1.80;1.20;;;;;;;21.11;56.93;100068.22;10463693;28;20102;-73
2022/08/02 22:58:51;;;;;;;1.92;1.52;;;;;;;21.40;56.87;100071.41;10462672;28;20037;-73
2022/08/02 23:04:12;;;;;;;2.30;1.70;;;;;;;21.36;56.78;100063.72;10462686;28;20509;-72
2022/08/02 23:09:14;;;;;;;1.77;1.50;;;;;;;21.15;57.42;100066.16;10462417;28;20116;-72
2022/08/02 23:14:17;;;;;;;1.45;1.35;;;;;;;20.87;58.33;100070.06;10461813;28;20037;-72
2022/08/02 23:24:39;;;;;;;5.40;1.80;;;;;;;20.82;58.41;100073.06;10462102;28;20401;-72
2022/08/02 23:29:41;;;;;;;3.13;1.70;;;;;;;20.55;59.13;100070.59;10460825;28;20494;-72
2022/08/02 23:34:43;;;;;;;2.30;1.70;;;;;;;20.73;58.52;100076.41;10442859;28;20045;-73
2022/08/02 23:39:44;;;;;;;2.45;1.55;;;;;;;20.68;58.39;100077.72;10460748;28;20041;-72
2022/08/02 23:44:46;;;;;;;2.45;1.38;;;;;;;20.37;59.35;100078.09;10442592;28;20052;-73
2022/08/02 23:49:48;;;;;;;2.40;1.60;;;;;;;20.37;60.24;100078.09;10459851;28;20044;-73